Time,TemperatureF,DewpointF,PressureIn,WindDirection,WindDirectionDegrees,WindSpeedMPH,WindSpeedGustMPH,Humidity,HourlyPrecipIn,Conditions,Clouds,dailyrainin,SoftwareType,DateUTC
2013-03-16 00:03:00,21.6,18.3,29.92,North,360,3.0,3.7,87,0.00,RA,,0.00,WeatherDisplay:10.37,2013-03-16 05:03:00,
2013-03-16 00:08:00,21.6,18.1,29.92,North,360,2.9,3.7,86,0.00,RA,,0.00,WeatherDisplay:10.37,2013-03-16 05:08:00,
2013-03-16 00:14:00,21.6,18.3,29.92,NE,45,3.3,5.8,87,0.00,OVC,,0.00,WeatherDisplay:10.37,2013-03-16 05:14:00,
2013-03-16 00:19:00,21.4,18.4,29.92,NNE,22,2.8,5.8,88,0.00,OVC,,0.00,WeatherDisplay:10.37,2013-03-16 05:19:00,
2013-03-16 00:24:00,21.4,18.1,29.92,NNE,22,1.8,2.3,87,0.00,OVC,,0.00,WeatherDisplay:10.37,2013-03-16 05:24:00,
2013-03-16 00:29:00,21.4,18.1,29.92,NNE,22,2.6,3.5,87,0.00,OVC,,0.00,WeatherDisplay:10.37,2013-03-16 05:29:00,
2013-03-16 00:34:00,21.4,17.9,29.93,NNE,22,3.5,4.6,86,0.00,OVC,,0.00,WeatherDisplay:10.37,2013-03-16 05:34:00,
2013-03-16 00:39:00,21.4,17.6,29.93,NNE,22,2.4,2.7,85,0.00,OVC,,0.00,WeatherDisplay:10.37,2013-03-16 05:39:00,
2013-03-16 00:44:00,21.4,17.6,29.93,NNE,22,2.1,3.5,85,0.00,OVC,,0.00,WeatherDisplay:10.37,2013-03-16 05:44:00,
2013-03-16 00:49:00,21.4,17.6,29.93,NNE,22,5.4,9.2,85,0.00,OVC,,0.00,WeatherDisplay:10.37,2013-03-16 05:49:00,
2013-03-16 00:55:00,21.4,17.6,29.93,NNE,22,2.7,2.7,85,0.00,OVC,,0.00,WeatherDisplay:10.37,2013-03-16 05:55:00,
2013-03-16 01:00:00,21.2,17.4,29.93,NNE,22,4.4,5.8,85,0.00,OVC,,0.00,WeatherDisplay:10.37,2013-03-16 06:00:00,
2013-03-16 01:05:00,21.0,17.2,29.93,NNE,22,2.8,3.5,85,0.00,OVC,,0.00,WeatherDisplay:10.37,2013-03-16 06:05:00,
2013-03-16 01:10:00,21.0,16.9,29.93,NNE,22,2.2,2.3,84,0.00,OVC,,0.00,WeatherDisplay:10.37,2013-03-16 06:10:00,
2013-03-16 01:15:00,21.0,16.9,29.93,North,360,3.0,3.5,84,0.00,OVC,,0.00,WeatherDisplay:10.37,2013-03-16 06:15:00,
2013-03-16 01:20:00,21.0,17.2,29.93,ENE,68,3.6,8.1,85,0.00,OVC,,0.00,WeatherDisplay:10.37,2013-03-16 06:20:00,
2013-03-16 01:25:00,21.0,17.2,29.94,North,360,3.7,3.7,85,0.00,OVC,,0.00,WeatherDisplay:10.37,2013-03-16 06:25:00,
2013-03-16 01:30:00,21.0,17.5,29.94,NNE,22,3.4,4.2,86,0.00,OVC,,0.00,WeatherDisplay:10.37,2013-03-16 06:30:00,
2013-03-16 01:35:00,21.0,17.5,29.94,NNE,22,2.4,3.5,86,0.00,OVC,,0.00,WeatherDisplay:10.37,2013-03-16 06:35:00,
2013-03-16 01:41:00,21.0,17.7,29.94,East,90,3.9,3.9,87,0.00,OVC,,0.00,WeatherDisplay:10.37,2013-03-16 06:41:00,
2013-03-16 01:46:00,21.0,18.0,29.95,North,360,2.6,3.5,88,0.00,OVC,,0.00,WeatherDisplay:10.37,2013-03-16 06:46:00,
2013-03-16 01:51:00,21.0,18.0,29.95,North,360,2.7,2.7,88,0.00,OVC,,0.00,WeatherDisplay:10.37,2013-03-16 06:51:00,
2013-03-16 01:56:00,21.0,18.3,29.95,NNE,22,4.2,4.6,89,0.00,OVC,,0.00,WeatherDisplay:10.37,2013-03-16 06:56:00,
2013-03-16 02:01:00,20.8,18.1,29.94,North,360,3.9,4.7,89,0.00,OVC,,0.00,WeatherDisplay:10.37,2013-03-16 07:01:00,
2013-03-16 02:06:00,20.8,18.1,29.94,NNW,338,4.0,7.3,89,0.00,OVC,,0.00,WeatherDisplay:10.37,2013-03-16 07:06:00,
2013-03-16 02:11:00,20.5,17.8,29.95,North,360,3.7,3.7,89,0.00,OVC,,0.00,WeatherDisplay:10.37,2013-03-16 07:11:00,
2013-03-16 02:17:00,20.5,17.5,29.95,NNE,22,3.3,5.8,88,0.00,OVC,,0.00,WeatherDisplay:10.37,2013-03-16 07:17:00,
2013-03-16 02:22:00,20.3,17.3,29.95,NE,45,4.2,4.7,88,0.00,OVC,,0.00,WeatherDisplay:10.37,2013-03-16 07:22:00,
2013-03-16 02:27:00,20.3,17.3,29.95,NNE,22,5.1,5.8,88,0.00,OVC,,0.00,WeatherDisplay:10.37,2013-03-16 07:27:00,
2013-03-16 02:32:00,20.1,16.9,29.95,North,360,3.7,9.2,87,0.00,OVC,,0.00,WeatherDisplay:10.37,2013-03-16 07:32:00,
2013-03-16 02:37:00,20.1,16.9,29.95,NE,45,5.3,6.9,87,0.00,OVC,,0.00,WeatherDisplay:10.37,2013-03-16 07:37:00,
2013-03-16 02:42:00,20.1,16.3,29.95,North,360,4.5,5.3,85,0.00,OVC,,0.00,WeatherDisplay:10.37,2013-03-16 07:42:00,
2013-03-16 02:47:00,19.9,15.6,29.95,North,360,3.3,4.6,83,0.00,OVC,,0.00,WeatherDisplay:10.37,2013-03-16 07:47:00,
2013-03-16 02:52:00,19.9,15.6,29.95,NNE,22,2.8,3.5,83,0.00,OVC,,0.00,WeatherDisplay:10.37,2013-03-16 07:52:00,
2013-03-16 02:57:00,19.9,15.6,29.95,North,360,2.3,4.6,83,0.00,OVC,,0.00,WeatherDisplay:10.37,2013-03-16 07:57:00,
2013-03-16 03:03:00,19.9,15.6,29.95,North,360,2.6,2.7,83,0.00,OVC,,0.00,WeatherDisplay:10.37,2013-03-16 08:03:00,
2013-03-16 03:08:00,19.8,15.7,29.95,North,360,4.9,4.9,84,0.00,OVC,,0.00,WeatherDisplay:10.37,2013-03-16 08:08:00,
2013-03-16 03:13:00,19.8,16.0,29.96,NE,45,4.4,5.8,85,0.00,OVC,,0.00,WeatherDisplay:10.37,2013-03-16 08:13:00,
2013-03-16 03:18:00,19.8,16.0,29.96,NNE,22,2.2,2.3,85,0.00,OVC,,0.00,WeatherDisplay:10.37,2013-03-16 08:18:00,
2013-03-16 03:23:00,19.8,16.0,29.96,NNE,22,2.2,2.3,85,0.00,OVC,,0.00,WeatherDisplay:10.37,2013-03-16 08:23:00,
2013-03-16 03:28:00,19.8,16.0,29.96,NNE,22,2.2,2.3,85,0.00,OVC,,0.00,WeatherDisplay:10.37,2013-03-16 08:28:00,
2013-03-16 03:33:00,19.8,16.0,29.96,NNE,22,2.2,2.3,85,0.00,OVC,,0.00,WeatherDisplay:10.37,2013-03-16 08:33:00,
2013-03-16 03:38:00,19.8,16.0,29.96,NNE,22,2.2,2.3,85,0.00,OVC,,0.00,WeatherDisplay:10.37,2013-03-16 08:38:00,
2013-03-16 03:43:00,19.8,16.0,29.96,NNE,22,2.2,2.3,85,0.00,OVC,,0.00,WeatherDisplay:10.37,2013-03-16 08:43:00,
2013-03-16 03:48:00,19.8,16.0,29.96,NNE,22,2.2,2.3,85,0.00,OVC,,0.00,WeatherDisplay:10.37,2013-03-16 08:48:00,
2013-03-16 03:54:00,19.8,16.0,29.96,NNE,22,2.2,2.3,85,0.00,OVC,,0.00,WeatherDisplay:10.37,2013-03-16 08:54:00,
2013-03-16 03:59:00,19.8,16.0,29.96,NNE,22,2.2,2.3,85,0.00,OVC,,0.00,WeatherDisplay:10.37,2013-03-16 08:59:00,
2013-03-16 04:04:00,19.8,16.0,29.96,NNE,22,2.2,2.3,85,0.00,OVC,,0.00,WeatherDisplay:10.37,2013-03-16 09:04:00,
2013-03-16 04:09:00,19.8,16.0,29.96,NNE,22,2.2,2.3,85,0.00,OVC,,0.00,WeatherDisplay:10.37,2013-03-16 09:09:00,
2013-03-16 04:14:00,19.8,16.0,29.96,NNE,22,2.2,2.3,85,0.00,OVC,,0.00,WeatherDisplay:10.37,2013-03-16 09:14:00,
2013-03-16 04:19:00,19.8,16.0,29.96,NNE,22,2.2,2.3,85,0.00,OVC,,0.00,WeatherDisplay:10.37,2013-03-16 09:19:00,
2013-03-16 04:24:00,19.8,16.0,29.96,NNE,22,2.2,2.3,85,0.00,OVC,,0.00,WeatherDisplay:10.37,2013-03-16 09:24:00,
2013-03-16 04:29:00,19.8,16.0,29.96,NNE,22,2.2,2.3,85,0.00,OVC,,0.00,WeatherDisplay:10.37,2013-03-16 09:29:00,
2013-03-16 04:34:00,19.8,16.0,29.96,NNE,22,2.2,2.3,85,0.00,OVC,,0.00,WeatherDisplay:10.37,2013-03-16 09:34:00,
2013-03-16 04:39:00,19.8,16.0,29.96,NNE,22,2.2,2.3,85,0.00,OVC,,0.00,WeatherDisplay:10.37,2013-03-16 09:39:00,
2013-03-16 04:45:00,19.8,16.0,29.96,NNE,22,2.2,2.3,85,0.00,OVC,,0.00,WeatherDisplay:10.37,2013-03-16 09:45:00,
2013-03-16 04:50:00,19.8,16.0,29.96,NNE,22,2.2,2.3,85,0.00,OVC,,0.00,WeatherDisplay:10.37,2013-03-16 09:50:00,
2013-03-16 04:55:00,19.8,16.0,29.96,NNE,22,2.2,2.3,85,0.00,OVC,,0.00,WeatherDisplay:10.37,2013-03-16 09:55:00,
2013-03-16 05:00:00,19.8,16.0,29.96,NNE,22,2.2,2.3,85,0.00,OVC,,0.00,WeatherDisplay:10.37,2013-03-16 10:00:00,
2013-03-16 05:05:00,19.8,16.0,29.96,NNE,22,2.2,2.3,85,0.00,OVC,,0.00,WeatherDisplay:10.37,2013-03-16 10:05:00,
2013-03-16 05:10:00,19.8,16.0,29.96,NNE,22,2.2,2.3,85,0.00,OVC,,0.00,WeatherDisplay:10.37,2013-03-16 10:10:00,
2013-03-16 05:15:00,19.8,16.0,29.96,NNE,22,2.2,2.3,85,0.00,OVC,,0.00,WeatherDisplay:10.37,2013-03-16 10:15:00,
2013-03-16 05:20:00,19.8,16.0,29.96,NNE,22,2.2,2.3,85,0.00,OVC,,0.00,WeatherDisplay:10.37,2013-03-16 10:20:00,
2013-03-16 05:25:00,19.8,16.0,29.96,NNE,22,2.2,2.3,85,0.00,OVC,,0.00,WeatherDisplay:10.37,2013-03-16 10:25:00,
2013-03-16 05:30:00,19.8,16.0,29.96,NNE,22,2.2,2.3,85,0.00,OVC,,0.00,WeatherDisplay:10.37,2013-03-16 10:30:00,
2013-03-16 05:36:00,19.8,16.0,29.96,NNE,22,2.2,2.3,85,0.00,OVC,,0.00,WeatherDisplay:10.37,2013-03-16 10:36:00,
2013-03-16 05:41:00,19.8,16.0,29.96,NNE,22,2.2,2.3,85,0.00,OVC,,0.00,WeatherDisplay:10.37,2013-03-16 10:41:00,
2013-03-16 05:46:00,19.8,16.0,29.96,NNE,22,2.2,2.3,85,0.00,OVC,,0.00,WeatherDisplay:10.37,2013-03-16 10:46:00,
2013-03-16 05:51:00,19.8,16.0,29.96,NNE,22,2.2,2.3,85,0.00,OVC,,0.00,WeatherDisplay:10.37,2013-03-16 10:51:00,
2013-03-16 05:56:00,19.8,16.0,29.96,NNE,22,2.2,2.3,85,0.00,OVC,,0.00,WeatherDisplay:10.37,2013-03-16 10:56:00,
2013-03-16 06:01:00,19.8,16.0,29.96,NNE,22,2.2,2.3,85,0.00,OVC,,0.00,WeatherDisplay:10.37,2013-03-16 11:01:00,
2013-03-16 06:07:00,19.8,16.0,29.96,NNE,22,2.2,2.3,85,0.00,OVC,,0.00,WeatherDisplay:10.37,2013-03-16 11:07:00,
2013-03-16 06:12:00,19.8,16.0,29.96,NNE,22,2.2,2.3,85,0.00,OVC,,0.00,WeatherDisplay:10.37,2013-03-16 11:12:00,
2013-03-16 06:17:00,19.8,16.0,29.96,NNE,22,2.2,2.3,85,0.00,OVC,,0.00,WeatherDisplay:10.37,2013-03-16 11:17:00,
2013-03-16 06:22:00,19.8,16.0,29.96,NNE,22,2.2,2.3,85,0.00,OVC,,0.00,WeatherDisplay:10.37,2013-03-16 11:22:00,
2013-03-16 06:27:00,19.8,16.0,29.96,NNE,22,2.2,2.3,85,0.00,OVC,,0.00,WeatherDisplay:10.37,2013-03-16 11:27:00,
2013-03-16 06:33:00,19.8,16.0,29.96,NNE,22,2.2,2.3,85,0.00,OVC,,0.00,WeatherDisplay:10.37,2013-03-16 11:33:00,
2013-03-16 06:38:00,19.8,16.0,29.96,NNE,22,2.2,2.3,85,0.00,OVC,,0.00,WeatherDisplay:10.37,2013-03-16 11:38:00,
2013-03-16 06:43:00,14.4,11.2,29.96,NNE,22,2.7,2.7,87,0.00,OVC,,0.00,WeatherDisplay:10.37,2013-03-16 11:43:00,
2013-03-16 06:48:00,14.2,11.0,30.06,NNE,22,2.9,4.7,87,0.00,OVC,,0.00,WeatherDisplay:10.37,2013-03-16 11:48:00,
2013-03-16 06:53:00,14.2,11.0,30.06,NNE,22,3.2,4.6,87,0.00,OVC,,0.00,WeatherDisplay:10.37,2013-03-16 11:53:00,
2013-03-16 06:58:00,14.2,11.0,30.06,NNE,22,2.1,2.3,87,0.00,OVC,,0.00,WeatherDisplay:10.37,2013-03-16 11:58:00,
2013-03-16 07:03:00,14.2,11.0,30.06,NNE,22,3.2,4.6,87,0.00,OVC,,0.00,WeatherDisplay:10.37,2013-03-16 12:03:00,
2013-03-16 07:08:00,13.8,10.4,30.06,NNE,22,2.2,3.5,86,0.00,OVC,,0.00,WeatherDisplay:10.37,2013-03-16 12:08:00,
2013-03-16 07:13:00,13.6,10.2,30.08,NNE,22,0.0,0.0,86,0.00,OVC,,0.00,WeatherDisplay:10.37,2013-03-16 12:13:00,
2013-03-16 07:18:00,13.5,10.1,30.08,NNE,22,1.6,2.3,86,0.00,OVC,,0.00,WeatherDisplay:10.37,2013-03-16 12:18:00,
2013-03-16 07:24:00,13.1,10.0,30.07,NNE,22,0.0,0.0,87,0.00,OVC,,0.00,WeatherDisplay:10.37,2013-03-16 12:24:00,
2013-03-16 07:29:00,12.9,9.8,30.07,NNE,22,0.0,0.0,87,0.00,OVC,,0.00,WeatherDisplay:10.37,2013-03-16 12:29:00,
2013-03-16 07:34:00,12.6,9.5,30.08,NNE,22,0.0,0.0,87,0.00,OVC,,0.00,WeatherDisplay:10.37,2013-03-16 12:34:00,
2013-03-16 07:39:00,12.4,9.3,30.08,NNE,22,0.0,0.0,87,0.00,OVC,,0.00,WeatherDisplay:10.37,2013-03-16 12:39:00,
2013-03-16 07:44:00,12.4,9.3,30.08,NNE,22,0.0,0.0,87,0.00,OVC,,0.00,WeatherDisplay:10.37,2013-03-16 12:44:00,
2013-03-16 07:49:00,12.4,9.3,30.08,NNE,22,0.9,2.7,87,0.00,OVC,,0.00,WeatherDisplay:10.37,2013-03-16 12:49:00,
2013-03-16 07:54:00,12.7,9.6,30.08,NNE,22,0.1,1.7,87,0.00,OVC,,0.00,WeatherDisplay:10.37,2013-03-16 12:54:00,
2013-03-16 08:00:00,13.3,9.9,30.09,NNE,22,0.1,2.3,86,0.00,OVC,,0.00,WeatherDisplay:10.37,2013-03-16 13:00:00,
2013-03-16 08:05:00,13.3,9.9,30.09,NNE,22,0.0,0.0,86,0.00,OVC,,0.00,WeatherDisplay:10.37,2013-03-16 13:05:00,
2013-03-16 08:10:00,13.3,9.9,30.09,NNE,22,0.0,0.0,86,0.00,OVC,,0.00,WeatherDisplay:10.37,2013-03-16 13:10:00,
2013-03-16 08:15:00,13.5,10.1,30.09,NNE,22,2.2,3.5,86,0.00,OVC,,0.00,WeatherDisplay:10.37,2013-03-16 13:15:00,
2013-03-16 08:20:00,13.6,9.9,30.09,NNE,22,0.0,0.0,85,0.00,OVC,,0.00,WeatherDisplay:10.37,2013-03-16 13:20:00,
2013-03-16 08:25:00,14.0,10.3,30.10,NNE,22,0.7,2.7,85,0.00,OVC,,0.00,WeatherDisplay:10.37,2013-03-16 13:25:00,
2013-03-16 08:30:00,14.4,10.7,30.10,NNE,22,0.0,0.0,85,0.00,OVC,,0.00,WeatherDisplay:10.37,2013-03-16 13:30:00,
2013-03-16 08:35:00,14.4,10.7,30.10,NNE,22,0.0,0.0,85,0.00,OVC,,0.00,WeatherDisplay:10.37,2013-03-16 13:35:00,
2013-03-16 08:40:00,14.4,10.7,30.10,NNE,22,0.0,0.0,85,0.00,OVC,,0.00,WeatherDisplay:10.37,2013-03-16 13:40:00,
2013-03-16 08:46:00,14.4,10.7,30.10,NNE,22,0.0,0.0,85,0.00,OVC,,0.00,WeatherDisplay:10.37,2013-03-16 13:46:00,
2013-03-16 08:51:00,17.8,11.2,30.10,NNE,22,1.3,3.5,75,0.00,OVC,,0.00,WeatherDisplay:10.37,2013-03-16 13:51:00,
2013-03-16 08:56:00,18.0,11.1,30.10,North,360,3.3,3.5,74,0.00,OVC,,0.00,WeatherDisplay:10.37,2013-03-16 13:56:00,
2013-03-16 09:01:00,17.8,10.9,30.11,North,360,3.6,4.6,74,0.00,OVC,,0.00,WeatherDisplay:10.37,2013-03-16 14:01:00,
2013-03-16 09:06:00,18.3,11.1,30.11,North,360,2.1,2.3,73,0.00,OVC,,0.00,WeatherDisplay:10.37,2013-03-16 14:06:00,
2013-03-16 09:11:00,17.8,10.6,30.11,North,360,4.4,4.7,73,0.00,OVC,,0.00,WeatherDisplay:10.37,2013-03-16 14:11:00,
2013-03-16 09:16:00,18.7,11.5,30.11,NNE,22,2.5,3.5,73,0.00,OVC,,0.00,WeatherDisplay:10.37,2013-03-16 14:16:00,
2013-03-16 09:22:00,19.2,11.3,30.12,North,360,2.5,4.2,71,0.00,OVC,,0.00,WeatherDisplay:10.37,2013-03-16 14:22:00,
2013-03-16 09:27:00,19.6,11.7,30.12,NNE,22,0.2,2.3,71,0.00,OVC,,0.00,WeatherDisplay:10.37,2013-03-16 14:27:00,
2013-03-16 09:32:00,19.4,11.2,30.12,NNE,22,3.2,5.8,70,0.00,OVC,,0.00,WeatherDisplay:10.37,2013-03-16 14:32:00,
2013-03-16 09:37:00,20.1,11.2,30.12,North,360,1.6,4.6,68,0.00,OVC,,0.00,WeatherDisplay:10.37,2013-03-16 14:37:00,
2013-03-16 09:42:00,19.9,11.4,30.12,NNE,22,4.8,5.8,69,0.00,OVC,,0.00,WeatherDisplay:10.37,2013-03-16 14:42:00,
2013-03-16 09:47:00,19.8,10.9,30.12,North,360,2.1,4.6,68,0.00,OVC,,0.00,WeatherDisplay:10.37,2013-03-16 14:47:00,
2013-03-16 09:52:00,19.8,10.9,30.12,North,360,2.5,3.2,68,0.00,OVC,,0.00,WeatherDisplay:10.37,2013-03-16 14:52:00,
2013-03-16 09:57:00,20.8,11.6,30.12,North,360,3.1,3.5,67,0.00,OVC,,0.00,WeatherDisplay:10.37,2013-03-16 14:57:00,
2013-03-16 10:02:00,22.1,13.8,30.12,NW,315,3.2,4.6,70,0.00,OVC,,0.00,WeatherDisplay:10.37,2013-03-16 15:02:00,
2013-03-16 10:07:00,21.9,13.6,30.12,NNE,22,4.3,5.8,70,0.00,OVC,,0.00,WeatherDisplay:10.37,2013-03-16 15:07:00,
2013-03-16 10:13:00,21.9,13.6,30.12,NNE,22,4.7,6.3,70,0.00,OVC,,0.00,WeatherDisplay:10.37,2013-03-16 15:13:00,
2013-03-16 10:18:00,21.7,13.4,30.12,North,360,3.8,3.8,70,0.00,OVC,,0.00,WeatherDisplay:10.37,2013-03-16 15:18:00,
2013-03-16 10:23:00,20.8,13.5,30.12,North,360,3.7,5.8,73,0.00,OVC,,0.00,WeatherDisplay:10.37,2013-03-16 15:23:00,
2013-03-16 10:28:00,22.8,14.5,30.12,NNW,338,3.4,4.6,70,0.00,OVC,,0.00,WeatherDisplay:10.37,2013-03-16 15:28:00,
2013-03-16 10:33:00,22.8,14.5,30.12,NNE,22,5.0,5.8,70,0.00,OVC,,0.00,WeatherDisplay:10.37,2013-03-16 15:33:00,
2013-03-16 10:38:00,23.4,14.7,30.12,NNW,338,3.7,4.6,69,0.00,OVC,,0.00,WeatherDisplay:10.37,2013-03-16 15:38:00,
2013-03-16 10:43:00,22.6,14.3,30.12,NNW,338,3.0,3.7,70,0.00,OVC,,0.00,WeatherDisplay:10.37,2013-03-16 15:43:00,
2013-03-16 10:49:00,23.5,14.5,30.12,NW,315,3.4,4.6,68,0.00,OVC,,0.00,WeatherDisplay:10.37,2013-03-16 15:49:00,
2013-03-16 10:54:00,22.8,14.1,30.12,NNW,338,3.2,3.5,69,0.00,OVC,,0.00,WeatherDisplay:10.37,2013-03-16 15:54:00,
2013-03-16 10:59:00,23.7,14.7,30.13,West,270,3.7,5.8,68,0.00,OVC,,0.00,WeatherDisplay:10.37,2013-03-16 15:59:00,
2013-03-16 11:04:00,22.8,14.1,30.13,NE,45,5.0,5.8,69,0.00,OVC,,0.00,WeatherDisplay:10.37,2013-03-16 16:04:00,
2013-03-16 11:09:00,21.4,13.1,30.13,NNW,338,4.1,5.8,70,0.00,OVC,,0.00,WeatherDisplay:10.37,2013-03-16 16:09:00,
2013-03-16 11:14:00,23.5,14.1,30.13,North,360,5.8,5.8,67,0.00,OVC,,0.00,WeatherDisplay:10.37,2013-03-16 16:14:00,
2013-03-16 11:19:00,21.9,13.6,30.13,NNW,338,3.8,5.8,70,0.00,OVC,,0.00,WeatherDisplay:10.37,2013-03-16 16:19:00,
2013-03-16 11:24:00,22.6,14.3,30.13,NNW,338,3.5,4.2,70,0.00,OVC,,0.00,WeatherDisplay:10.37,2013-03-16 16:24:00,
2013-03-16 11:29:00,23.5,14.1,30.13,NNW,338,2.2,4.6,67,0.00,OVC,,0.00,WeatherDisplay:10.37,2013-03-16 16:29:00,
2013-03-16 11:34:00,21.6,13.3,30.13,NNW,338,3.1,3.7,70,0.00,OVC,,0.00,WeatherDisplay:10.37,2013-03-16 16:34:00,
2013-03-16 11:40:00,23.2,13.9,30.13,NNW,338,3.6,4.7,67,0.00,OVC,,0.00,WeatherDisplay:10.37,2013-03-16 16:40:00,
2013-03-16 11:45:00,24.1,14.4,30.13,North,360,3.8,5.3,66,0.00,OVC,,0.00,WeatherDisplay:10.37,2013-03-16 16:45:00,
2013-03-16 11:50:00,21.0,12.4,30.13,North,360,2.9,4.6,69,0.00,OVC,,0.00,WeatherDisplay:10.37,2013-03-16 16:50:00,
2013-03-16 11:55:00,24.8,14.3,30.13,North,360,4.3,5.8,64,0.00,OVC,,0.00,WeatherDisplay:10.37,2013-03-16 16:55:00,
2013-03-16 12:00:00,23.5,14.1,30.13,North,360,3.7,4.6,67,0.00,OVC,,0.00,WeatherDisplay:10.37,2013-03-16 17:00:00,
2013-03-16 12:05:00,24.1,14.4,30.13,NNW,338,3.6,4.2,66,0.00,OVC,,0.00,WeatherDisplay:10.37,2013-03-16 17:05:00,
2013-03-16 12:10:00,27.3,15.6,30.13,West,270,5.6,5.8,61,0.00,OVC,,0.00,WeatherDisplay:10.37,2013-03-16 17:10:00,
2013-03-16 12:15:00,26.8,15.1,30.13,SSW,202,4.1,5.8,61,0.00,OVC,,0.00,WeatherDisplay:10.37,2013-03-16 17:15:00,
2013-03-16 12:20:00,28.2,15.7,30.13,WNW,292,5.0,6.9,59,0.00,OVC,,0.00,WeatherDisplay:10.37,2013-03-16 17:20:00,
2013-03-16 12:25:00,25.5,15.0,30.13,North,360,3.8,5.8,64,0.00,OVC,,0.00,WeatherDisplay:10.37,2013-03-16 17:25:00,
2013-03-16 12:31:00,27.3,15.6,30.13,WNW,292,6.5,8.8,61,0.00,OVC,,0.00,WeatherDisplay:10.37,2013-03-16 17:31:00,
2013-03-16 12:36:00,26.4,15.1,30.13,North,360,3.5,4.6,62,0.00,OVC,,0.00,WeatherDisplay:10.37,2013-03-16 17:36:00,
2013-03-16 12:41:00,25.5,14.6,30.13,East,90,4.2,5.3,63,0.00,OVC,,0.00,WeatherDisplay:10.37,2013-03-16 17:41:00,
2013-03-16 12:47:00,25.7,14.1,30.14,West,270,5.2,8.1,61,0.00,OVC,,0.00,WeatherDisplay:10.37,2013-03-16 17:47:00,
2013-03-16 12:52:00,25.5,13.9,30.14,NNW,338,2.6,4.6,61,0.00,OVC,,0.00,WeatherDisplay:10.37,2013-03-16 17:52:00,
2013-03-16 12:57:00,25.2,14.0,30.13,NW,315,3.6,4.7,62,0.00,OVC,,0.00,WeatherDisplay:10.37,2013-03-16 17:57:00,
2013-03-16 13:02:00,24.8,13.6,30.13,NNW,338,5.3,6.9,62,0.00,OVC,,0.00,WeatherDisplay:10.37,2013-03-16 18:02:00,
2013-03-16 13:07:00,24.8,13.6,30.13,North,360,2.4,3.5,62,0.00,OVC,,0.00,WeatherDisplay:10.37,2013-03-16 18:07:00,
2013-03-16 13:12:00,23.2,12.5,30.14,NNW,338,1.7,2.7,63,0.00,OVC,,0.00,WeatherDisplay:10.37,2013-03-16 18:12:00,
2013-03-16 13:17:00,25.9,14.3,30.14,NE,45,3.1,4.7,61,0.00,OVC,,0.00,WeatherDisplay:10.37,2013-03-16 18:17:00,
2013-03-16 13:22:00,27.0,14.6,30.14,West,270,6.5,6.9,59,0.00,OVC,,0.00,WeatherDisplay:10.37,2013-03-16 18:22:00,
2013-03-16 13:28:00,27.0,13.8,30.14,North,360,4.7,4.7,57,0.00,OVC,,0.00,WeatherDisplay:10.37,2013-03-16 18:28:00,
2013-03-16 13:33:00,26.6,13.4,30.14,NNW,338,3.1,8.1,57,0.00,OVC,,0.00,WeatherDisplay:10.37,2013-03-16 18:33:00,
2013-03-16 13:38:00,26.4,13.2,30.14,NE,45,5.3,6.8,57,0.00,OVC,,0.00,WeatherDisplay:10.37,2013-03-16 18:38:00,
2013-03-16 13:43:00,27.7,14.0,30.14,NNE,22,3.9,6.9,56,0.00,OVC,,0.00,WeatherDisplay:10.37,2013-03-16 18:43:00,
2013-03-16 13:48:00,26.6,13.4,30.14,North,360,3.9,4.7,57,0.00,OVC,,0.00,WeatherDisplay:10.37,2013-03-16 18:48:00,
2013-03-16 13:53:00,26.6,13.4,30.14,North,360,3.4,4.6,57,0.00,OVC,,0.00,WeatherDisplay:10.37,2013-03-16 18:53:00,
2013-03-16 13:58:00,26.8,12.8,30.14,NNW,338,3.0,5.8,55,0.00,OVC,,0.00,WeatherDisplay:10.37,2013-03-16 18:58:00,
2013-03-16 14:03:00,26.6,13.0,30.14,East,90,3.7,4.6,56,0.00,OVC,,0.00,WeatherDisplay:10.37,2013-03-16 19:03:00,
2013-03-16 14:08:00,26.4,12.4,30.14,NW,315,4.1,5.8,55,0.00,OVC,,0.00,WeatherDisplay:10.37,2013-03-16 19:08:00,
2013-03-16 14:13:00,26.4,13.2,30.13,North,360,4.1,5.8,57,0.00,OVC,,0.00,WeatherDisplay:10.37,2013-03-16 19:13:00,
2013-03-16 14:19:00,27.9,13.8,30.13,NNW,338,3.3,5.8,55,0.00,OVC,,0.00,WeatherDisplay:10.37,2013-03-16 19:19:00,
2013-03-16 14:24:00,26.6,13.0,30.13,North,360,3.6,5.8,56,0.00,OVC,,0.00,WeatherDisplay:10.37,2013-03-16 19:24:00,
2013-03-16 14:29:00,26.6,13.0,30.13,NNW,338,3.8,5.8,56,0.00,OVC,,0.00,WeatherDisplay:10.37,2013-03-16 19:29:00,
2013-03-16 14:34:00,27.0,13.8,30.13,NNE,22,4.0,5.8,57,0.00,OVC,,0.00,WeatherDisplay:10.37,2013-03-16 19:34:00,
2013-03-16 14:39:00,27.7,13.6,30.13,North,360,4.2,5.8,55,0.00,OVC,,0.00,WeatherDisplay:10.37,2013-03-16 19:39:00,
2013-03-16 14:44:00,27.5,13.4,30.13,North,360,3.9,4.6,55,0.00,OVC,,0.00,WeatherDisplay:10.37,2013-03-16 19:44:00,
2013-03-16 14:49:00,26.8,12.8,30.12,South,180,4.0,4.6,55,0.00,OVC,,0.00,WeatherDisplay:10.37,2013-03-16 19:49:00,
2013-03-16 14:54:00,28.8,14.2,30.12,WNW,292,4.9,5.8,54,0.00,OVC,,0.00,WeatherDisplay:10.37,2013-03-16 19:54:00,
2013-03-16 14:59:00,26.6,12.6,30.12,North,360,3.2,4.6,55,0.00,OVC,,0.00,WeatherDisplay:10.37,2013-03-16 19:59:00,
2013-03-16 15:05:00,27.9,13.0,30.12,NNW,338,2.8,3.5,53,0.00,OVC,,0.00,WeatherDisplay:10.37,2013-03-16 20:05:00,
2013-03-16 15:10:00,27.9,13.4,30.11,NNW,338,2.7,4.6,54,0.00,OVC,,0.00,WeatherDisplay:10.37,2013-03-16 20:10:00,
2013-03-16 15:15:00,29.3,13.4,30.11,NNW,338,5.2,5.8,51,0.00,OVC,,0.00,WeatherDisplay:10.37,2013-03-16 20:15:00,
2013-03-16 15:20:00,29.1,13.2,30.11,WSW,248,5.1,5.8,51,0.00,OVC,,0.01,WeatherDisplay:10.37,2013-03-16 20:20:00,
2013-03-16 15:25:00,27.3,12.8,30.11,NNE,22,3.4,4.7,54,0.01,RA,,0.01,WeatherDisplay:10.37,2013-03-16 20:25:00,
2013-03-16 15:30:00,27.7,12.3,30.11,North,360,4.5,6.9,52,0.04,RA,,0.04,WeatherDisplay:10.37,2013-03-16 20:30:00,
2013-03-16 15:35:00,27.5,12.2,30.11,North,360,4.2,6.3,52,0.04,RA,,0.04,WeatherDisplay:10.37,2013-03-16 20:35:00,
2013-03-16 15:40:00,27.7,13.2,30.11,North,360,5.7,5.8,54,0.04,OVC,,0.04,WeatherDisplay:10.37,2013-03-16 20:40:00,
2013-03-16 15:45:00,27.5,12.2,30.11,NNW,338,5.3,5.8,52,0.05,RA,,0.05,WeatherDisplay:10.37,2013-03-16 20:45:00,
2013-03-16 15:50:00,27.0,11.7,30.11,North,360,3.2,5.8,52,0.05,RA,,0.05,WeatherDisplay:10.37,2013-03-16 20:50:00,
2013-03-16 15:55:00,26.8,11.1,30.11,North,360,4.3,6.9,51,0.05,OVC,,0.05,WeatherDisplay:10.37,2013-03-16 20:55:00,
2013-03-16 16:01:00,26.2,11.4,30.11,North,360,4.2,4.6,53,0.05,OVC,,0.05,WeatherDisplay:10.37,2013-03-16 21:01:00,
2013-03-16 16:06:00,27.0,11.7,30.11,North,360,4.3,6.9,52,0.06,RA,,0.06,WeatherDisplay:10.37,2013-03-16 21:06:00,
2013-03-16 16:11:00,26.4,11.6,30.11,NNE,22,3.9,7.3,53,0.06,RA,,0.06,WeatherDisplay:10.37,2013-03-16 21:11:00,
2013-03-16 16:17:00,26.1,11.3,30.11,NNE,22,3.8,5.8,53,0.06,OVC,,0.06,WeatherDisplay:10.37,2013-03-16 21:17:00,
2013-03-16 16:22:00,26.1,11.7,30.10,North,360,3.8,8.1,54,0.05,OVC,,0.06,WeatherDisplay:10.37,2013-03-16 21:22:00,
2013-03-16 16:27:00,26.2,11.8,30.10,NNW,338,3.5,5.8,54,0.05,OVC,,0.06,WeatherDisplay:10.37,2013-03-16 21:27:00,
2013-03-16 16:32:00,26.8,11.1,30.10,NNW,338,4.0,5.8,51,0.02,OVC,,0.06,WeatherDisplay:10.37,2013-03-16 21:32:00,
2013-03-16 16:37:00,25.7,10.9,30.10,North,360,3.7,9.2,53,0.02,OVC,,0.06,WeatherDisplay:10.37,2013-03-16 21:37:00,
2013-03-16 16:42:00,26.6,11.3,30.10,WNW,292,5.8,6.3,52,0.02,OVC,,0.06,WeatherDisplay:10.37,2013-03-16 21:42:00,
2013-03-16 16:47:00,26.2,11.4,30.10,NNE,22,4.9,6.9,53,0.01,OVC,,0.06,WeatherDisplay:10.37,2013-03-16 21:47:00,
2013-03-16 16:52:00,25.3,11.4,30.10,WNW,292,4.0,6.3,55,0.01,OVC,,0.06,WeatherDisplay:10.37,2013-03-16 21:52:00,
2013-03-16 16:57:00,25.7,10.9,30.10,NNW,338,5.7,8.1,53,0.01,OVC,,0.06,WeatherDisplay:10.37,2013-03-16 21:57:00,
2013-03-16 17:02:00,24.4,10.1,30.10,NNW,338,3.8,6.9,54,0.01,OVC,,0.06,WeatherDisplay:10.37,2013-03-16 22:02:00,
2013-03-16 17:07:00,24.6,10.3,30.10,North,360,3.1,4.6,54,0.01,RA,,0.07,WeatherDisplay:10.37,2013-03-16 22:07:00,
2013-03-16 17:13:00,24.4,10.1,30.10,NNW,338,3.7,5.8,54,0.01,RA,,0.07,WeatherDisplay:10.37,2013-03-16 22:13:00,
2013-03-16 17:18:00,24.6,10.3,30.10,NNW,338,5.2,5.3,54,0.01,OVC,,0.07,WeatherDisplay:10.37,2013-03-16 22:18:00,
2013-03-16 17:23:00,23.9,9.6,30.10,NNW,338,4.2,4.6,54,0.01,OVC,,0.07,WeatherDisplay:10.37,2013-03-16 22:23:00,
2013-03-16 17:28:00,25.2,10.0,30.10,NW,315,5.2,6.9,52,0.01,OVC,,0.07,WeatherDisplay:10.37,2013-03-16 22:28:00,
2013-03-16 17:33:00,23.9,8.8,30.10,NNW,338,2.2,3.5,52,0.01,OVC,,0.07,WeatherDisplay:10.37,2013-03-16 22:33:00,
2013-03-16 17:38:00,24.3,9.6,30.10,NE,45,4.2,4.7,53,0.01,OVC,,0.07,WeatherDisplay:10.37,2013-03-16 22:38:00,
2013-03-16 17:43:00,23.7,9.0,30.10,NW,315,3.2,6.3,53,0.01,OVC,,0.07,WeatherDisplay:10.37,2013-03-16 22:43:00,
2013-03-16 17:48:00,24.3,9.2,30.10,NNW,338,5.1,5.8,52,0.01,OVC,,0.07,WeatherDisplay:10.37,2013-03-16 22:48:00,
2013-03-16 17:53:00,24.3,9.2,30.10,NNW,338,4.1,5.8,52,0.01,OVC,,0.07,WeatherDisplay:10.37,2013-03-16 22:53:00,
2013-03-16 17:58:00,23.9,8.8,30.10,North,360,3.1,8.1,52,0.01,OVC,,0.07,WeatherDisplay:10.37,2013-03-16 22:58:00,
2013-03-16 18:04:00,23.5,8.4,30.10,West,270,5.2,5.8,52,0.01,OVC,,0.07,WeatherDisplay:10.37,2013-03-16 23:04:00,
2013-03-16 18:09:00,23.0,8.8,30.10,NW,315,4.0,5.8,54,0.00,OVC,,0.07,WeatherDisplay:10.37,2013-03-16 23:09:00,
2013-03-16 18:14:00,23.0,8.8,30.11,West,270,4.1,6.8,54,0.00,OVC,,0.07,WeatherDisplay:10.37,2013-03-16 23:14:00,
2013-03-16 18:19:00,23.5,8.4,30.11,NNW,338,3.2,5.8,52,0.00,OVC,,0.07,WeatherDisplay:10.37,2013-03-16 23:19:00,
2013-03-16 18:24:00,22.6,8.4,30.11,WNW,292,4.4,5.8,54,0.00,OVC,,0.07,WeatherDisplay:10.37,2013-03-16 23:24:00,
2013-03-16 18:29:00,22.8,8.6,30.11,NW,315,3.8,5.8,54,0.00,OVC,,0.07,WeatherDisplay:10.37,2013-03-16 23:29:00,
2013-03-16 18:34:00,22.1,8.0,30.12,NW,315,3.1,4.6,54,0.00,OVC,,0.07,WeatherDisplay:10.37,2013-03-16 23:34:00,
2013-03-16 18:39:00,21.4,8.1,30.12,NNE,22,3.8,5.8,56,0.00,OVC,,0.07,WeatherDisplay:10.37,2013-03-16 23:39:00,
2013-03-16 18:44:00,21.9,8.2,30.12,North,360,4.1,5.8,55,0.00,OVC,,0.07,WeatherDisplay:10.37,2013-03-16 23:44:00,
2013-03-16 18:49:00,21.4,8.1,30.12,North,360,1.7,2.3,56,0.00,OVC,,0.07,WeatherDisplay:10.37,2013-03-16 23:49:00,
2013-03-16 18:55:00,19.8,7.4,30.12,North,360,2.6,3.5,58,0.00,OVC,,0.07,WeatherDisplay:10.37,2013-03-16 23:55:00,
2013-03-16 19:00:00,19.6,7.6,30.12,North,360,1.6,2.7,59,0.00,OVC,,0.07,WeatherDisplay:10.37,2013-03-17 00:00:00,
2013-03-16 19:05:00,19.4,7.4,30.12,NW,315,2.2,2.7,59,0.00,OVC,,0.07,WeatherDisplay:10.37,2013-03-17 00:05:00,
2013-03-16 19:10:00,18.5,6.9,30.13,NNW,338,2.7,4.6,60,0.00,OVC,,0.07,WeatherDisplay:10.37,2013-03-17 00:10:00,
2013-03-16 19:15:00,18.0,7.2,30.13,NW,315,1.8,2.3,62,0.00,OVC,,0.07,WeatherDisplay:10.37,2013-03-17 00:15:00,
2013-03-16 19:20:00,17.6,6.8,30.13,NW,315,3.0,3.5,62,0.00,OVC,,0.07,WeatherDisplay:10.37,2013-03-17 00:20:00,
2013-03-16 19:25:00,17.2,7.1,30.14,NW,315,3.6,4.7,64,0.00,OVC,,0.07,WeatherDisplay:10.37,2013-03-17 00:25:00,
2013-03-16 19:30:00,17.1,7.0,30.14,NW,315,4.4,5.8,64,0.00,OVC,,0.07,WeatherDisplay:10.37,2013-03-17 00:30:00,
2013-03-16 19:35:00,16.7,6.6,30.14,NNW,338,3.3,4.2,64,0.00,OVC,,0.07,WeatherDisplay:10.37,2013-03-17 00:35:00,
2013-03-16 19:40:00,16.3,6.2,30.14,NNW,338,3.1,3.7,64,0.00,OVC,,0.07,WeatherDisplay:10.37,2013-03-17 00:40:00,
2013-03-16 19:46:00,16.2,6.5,30.15,NW,315,1.9,3.5,65,0.00,OVC,,0.07,WeatherDisplay:10.37,2013-03-17 00:46:00,
2013-03-16 19:51:00,16.0,6.3,30.15,NW,315,2.5,3.5,65,0.00,OVC,,0.07,WeatherDisplay:10.37,2013-03-17 00:51:00,
2013-03-16 19:56:00,16.0,6.3,30.15,West,270,4.1,5.8,65,0.00,OVC,,0.07,WeatherDisplay:10.37,2013-03-17 00:56:00,
2013-03-16 20:01:00,15.6,5.9,30.16,NW,315,3.3,4.6,65,0.00,OVC,,0.07,WeatherDisplay:10.37,2013-03-17 01:01:00,
2013-03-16 20:06:00,15.6,5.9,30.16,NW,315,2.1,4.6,65,0.00,OVC,,0.07,WeatherDisplay:10.37,2013-03-17 01:06:00,
2013-03-16 20:11:00,15.3,6.0,30.16,NW,315,1.7,2.2,66,0.00,OVC,,0.07,WeatherDisplay:10.37,2013-03-17 01:11:00,
2013-03-16 20:16:00,15.1,6.1,30.16,NW,315,3.3,4.6,67,0.00,OVC,,0.07,WeatherDisplay:10.37,2013-03-17 01:16:00,
2013-03-16 20:22:00,14.7,5.7,30.17,NNW,338,1.8,2.3,67,0.00,OVC,,0.07,WeatherDisplay:10.37,2013-03-17 01:22:00,
2013-03-16 20:27:00,14.5,5.9,30.17,NNW,338,1.8,2.3,68,0.00,OVC,,0.07,WeatherDisplay:10.37,2013-03-17 01:27:00,
2013-03-16 20:32:00,14.2,5.6,30.17,NNW,338,1.9,2.3,68,0.00,OVC,,0.07,WeatherDisplay:10.37,2013-03-17 01:32:00,
2013-03-16 20:37:00,14.2,5.9,30.17,NW,315,4.3,6.3,69,0.00,OVC,,0.07,WeatherDisplay:10.37,2013-03-17 01:37:00,
2013-03-16 20:42:00,14.4,6.1,30.17,WNW,292,3.5,4.6,69,0.00,OVC,,0.07,WeatherDisplay:10.37,2013-03-17 01:42:00,
2013-03-16 20:47:00,14.4,6.1,30.18,WNW,292,3.2,4.6,69,0.00,OVC,,0.07,WeatherDisplay:10.37,2013-03-17 01:47:00,
2013-03-16 20:52:00,14.0,5.7,30.18,NW,315,2.3,3.7,69,0.00,OVC,,0.07,WeatherDisplay:10.37,2013-03-17 01:52:00,
2013-03-16 20:58:00,14.0,5.7,30.18,West,270,3.9,4.7,69,0.00,OVC,,0.07,WeatherDisplay:10.37,2013-03-17 01:58:00,
2013-03-16 21:03:00,14.0,5.7,30.18,WSW,248,4.4,5.8,69,0.00,OVC,,0.07,WeatherDisplay:10.37,2013-03-17 02:03:00,
2013-03-16 21:08:00,14.0,5.4,30.18,North,360,3.5,4.6,68,0.00,OVC,,0.07,WeatherDisplay:10.37,2013-03-17 02:08:00,
2013-03-16 21:13:00,14.0,5.4,30.18,North,360,3.1,4.6,68,0.00,OVC,,0.07,WeatherDisplay:10.37,2013-03-17 02:13:00,
2013-03-16 21:18:00,13.6,5.0,30.18,North,360,3.4,4.6,68,0.00,OVC,,0.07,WeatherDisplay:10.37,2013-03-17 02:18:00,
2013-03-16 21:23:00,13.5,4.9,30.19,North,360,2.7,3.5,68,0.00,OVC,,0.07,WeatherDisplay:10.37,2013-03-17 02:23:00,
2013-03-16 21:28:00,13.3,5.0,30.19,West,270,4.2,5.8,69,0.00,OVC,,0.07,WeatherDisplay:10.37,2013-03-17 02:28:00,
2013-03-16 21:33:00,12.9,4.6,30.19,NW,315,2.0,2.3,69,0.00,OVC,,0.07,WeatherDisplay:10.37,2013-03-17 02:33:00,
2013-03-16 21:38:00,12.9,4.6,30.19,NW,315,1.7,1.7,69,0.00,OVC,,0.07,WeatherDisplay:10.37,2013-03-17 02:38:00,
2013-03-16 21:44:00,12.6,4.7,30.19,West,270,4.0,4.6,70,0.00,OVC,,0.07,WeatherDisplay:10.37,2013-03-17 02:44:00,
2013-03-16 21:49:00,12.6,4.7,30.20,NW,315,3.9,5.8,70,0.00,OVC,,0.07,WeatherDisplay:10.37,2013-03-17 02:49:00,
2013-03-16 21:54:00,12.4,4.5,30.20,NW,315,2.5,3.5,70,0.00,OVC,,0.07,WeatherDisplay:10.37,2013-03-17 02:54:00,
2013-03-16 21:59:00,12.2,4.3,30.19,WNW,292,3.6,6.3,70,0.00,OVC,,0.07,WeatherDisplay:10.37,2013-03-17 02:59:00,
2013-03-16 22:04:00,11.8,4.2,30.19,NW,315,1.3,2.3,71,0.00,OVC,,0.07,WeatherDisplay:10.37,2013-03-17 03:04:00,
2013-03-16 22:09:00,11.5,3.9,30.19,West,270,3.5,4.6,71,0.00,OVC,,0.07,WeatherDisplay:10.37,2013-03-17 03:09:00,
2013-03-16 22:14:00,11.5,3.9,30.19,NW,315,2.3,3.5,71,0.00,OVC,,0.07,WeatherDisplay:10.37,2013-03-17 03:14:00,
2013-03-16 22:19:00,11.1,3.5,30.19,NNW,338,2.9,3.7,71,0.00,OVC,,0.07,WeatherDisplay:10.37,2013-03-17 03:19:00,
2013-03-16 22:24:00,11.1,3.5,30.19,NNW,338,2.2,2.7,71,0.00,OVC,,0.07,WeatherDisplay:10.37,2013-03-17 03:24:00,
2013-03-16 22:29:00,10.9,3.3,30.19,NW,315,1.7,8.1,71,0.00,OVC,,0.07,WeatherDisplay:10.37,2013-03-17 03:29:00,
2013-03-16 22:35:00,10.8,3.2,30.20,NW,315,2.5,3.5,71,0.00,OVC,,0.07,WeatherDisplay:10.37,2013-03-17 03:35:00,
2013-03-16 22:40:00,10.6,3.0,30.20,NNW,338,2.2,4.6,71,0.00,OVC,,0.07,WeatherDisplay:10.37,2013-03-17 03:40:00,
2013-03-16 22:45:00,10.4,2.9,30.20,NNW,338,5.4,5.8,71,0.00,OVC,,0.07,WeatherDisplay:10.37,2013-03-17 03:45:00,
2013-03-16 22:50:00,10.2,2.7,30.21,NNW,338,3.2,5.8,71,0.00,OVC,,0.07,WeatherDisplay:10.37,2013-03-17 03:50:00,
2013-03-16 22:55:00,10.0,2.5,30.21,NNW,338,2.4,3.5,71,0.00,OVC,,0.07,WeatherDisplay:10.37,2013-03-17 03:55:00,
2013-03-16 23:00:00,9.7,2.2,30.22,NNW,338,1.9,3.5,71,0.00,OVC,,0.07,WeatherDisplay:10.37,2013-03-17 04:00:00,
2013-03-16 23:02:00,9.7,2.2,30.22,NNW,338,3.2,4.6,71,0.00,OVC,,0.07,WeatherDisplay:10.37,2013-03-17 04:02:00,
2013-03-16 23:07:00,9.3,2.1,30.22,NNW,338,3.9,4.6,72,0.00,OVC,,0.07,WeatherDisplay:10.37,2013-03-17 04:07:00,
2013-03-16 23:12:00,9.1,1.9,30.22,NNW,338,1.3,2.3,72,0.00,OVC,,0.07,WeatherDisplay:10.37,2013-03-17 04:12:00,
2013-03-16 23:17:00,9.0,2.1,30.22,NNW,338,2.8,3.5,73,0.00,OVC,,0.07,WeatherDisplay:10.37,2013-03-17 04:17:00,
2013-03-16 23:22:00,8.6,1.7,30.22,NNW,338,2.2,2.7,73,0.00,OVC,,0.07,WeatherDisplay:10.37,2013-03-17 04:22:00,
2013-03-16 23:27:00,8.2,1.3,30.22,NNW,338,2.5,2.7,73,0.00,OVC,,0.07,WeatherDisplay:10.37,2013-03-17 04:27:00,
2013-03-16 23:32:00,8.2,1.3,30.22,NNW,338,1.7,2.3,73,0.00,OVC,,0.07,WeatherDisplay:10.37,2013-03-17 04:32:00,
2013-03-16 23:38:00,8.1,1.5,30.23,NNW,338,0.7,1.1,74,0.00,OVC,,0.07,WeatherDisplay:10.37,2013-03-17 04:38:00,
2013-03-16 23:43:00,7.9,1.3,30.23,NNW,338,1.8,2.3,74,0.00,OVC,,0.07,WeatherDisplay:10.37,2013-03-17 04:43:00,
2013-03-16 23:48:00,7.5,1.2,30.23,NNW,338,0.9,1.7,75,0.00,OVC,,0.07,WeatherDisplay:10.37,2013-03-17 04:48:00,
2013-03-16 23:53:00,7.3,1.0,30.23,NNW,338,0.5,2.3,75,0.00,OVC,,0.07,WeatherDisplay:10.37,2013-03-17 04:53:00,
2013-03-16 23:58:00,7.2,0.9,30.23,NNW,338,0.0,4.6,75,0.00,OVC,,0.07,WeatherDisplay:10.37,2013-03-17 04:58:00,